Time;durP1;ratioP1;P1;durP2;ratioP2;P2;SDS_P1;SDS_P2;PMS_P1;PMS_P2;Temp;Humidity;BMP_temperature;BMP_pressure;BME280_temperature;BME280_humidity;BME280_pressure;Samples;Min_cycle;Max_cycle;Signal;HPM_P1;HPM_P2
2022/01/30 00:00:46;;;;;;;0.70;0.70;;;;;;;7.10;100.00;99043.94;5102046;28;20593;-66
2022/01/30 00:03:13;;;;;;;0.80;0.80;;;;;;;7.11;100.00;99040.38;5089698;28;20308;-66
2022/01/30 00:05:40;;;;;;;0.90;0.90;;;;;;;7.17;100.00;99048.00;5106113;28;20217;-66
2022/01/30 00:08:06;;;;;;;1.73;1.13;;;;;;;7.21;100.00;99039.06;5102290;28;20238;-66
2022/01/30 00:10:37;;;;;;;0.87;0.70;;;;;;;7.23;100.00;99039.88;5101774;28;20218;-66
2022/01/30 00:13:08;;;;;;;0.90;0.80;;;;;;;7.26;100.00;99050.25;5089746;28;20210;-66
2022/01/30 00:15:39;;;;;;;1.43;0.90;;;;;;;7.24;100.00;99046.84;5105309;28;20345;-66
2022/01/30 00:18:14;;;;;;;0.87;0.87;;;;;;;7.28;100.00;99037.91;5102013;28;20218;-66
2022/01/30 00:20:45;;;;;;;0.90;0.80;;;;;;;7.29;100.00;99048.34;5102331;28;20215;-66
2022/01/30 00:23:16;;;;;;;1.00;0.90;;;;;;;7.35;100.00;99044.63;5103369;28;20220;-66
2022/01/30 00:25:48;;;;;;;1.50;1.40;;;;;;;7.34;100.00;99038.50;5101656;28;20212;-66
2022/01/30 00:28:18;;;;;;;1.70;1.47;;;;;;;7.38;100.00;99044.47;5097338;28;20249;-66
2022/01/30 00:30:44;;;;;;;1.07;0.97;;;;;;;7.39;100.00;99035.66;5105498;28;20224;-67
2022/01/30 00:33:11;;;;;;;0.90;0.90;;;;;;;7.42;100.00;99035.56;5105712;28;20209;-66
2022/01/30 00:35:38;;;;;;;1.30;1.20;;;;;;;7.39;100.00;99030.41;5102026;28;20218;-66
2022/01/30 00:38:06;;;;;;;1.13;1.03;;;;;;;7.42;100.00;99019.78;5101705;28;20220;-66
2022/01/30 00:40:33;;;;;;;1.23;0.90;;;;;;;7.39;100.00;99015.50;5105475;28;20582;-66
2022/01/30 00:42:59;;;;;;;0.87;0.87;;;;;;;7.41;100.00;99028.59;5105216;28;20216;-66
2022/01/30 00:45:27;;;;;;;1.10;1.00;;;;;;;7.41;100.00;99012.81;5101500;28;20218;-66
2022/01/30 00:47:53;;;;;;;1.63;0.90;;;;;;;7.41;100.00;99020.69;5100115;28;20230;-66
2022/01/30 00:50:20;;;;;;;1.23;1.13;;;;;;;7.45;100.00;99030.16;5103618;28;20210;-66
2022/01/30 00:52:49;;;;;;;1.13;1.03;;;;;;;7.43;100.00;99018.84;5105128;28;20210;-66
2022/01/30 00:55:16;;;;;;;1.20;1.00;;;;;;;7.39;100.00;99019.88;5101939;28;20217;-66
2022/01/30 00:57:43;;;;;;;1.20;1.10;;;;;;;7.34;100.00;99029.78;5101508;28;20210;-66
2022/01/30 01:00:10;;;;;;;2.23;1.10;;;;;;;7.30;100.00;99031.63;5104704;28;20255;-66
2022/01/30 01:02:38;;;;;;;1.40;1.23;;;;;;;7.31;100.00;99032.50;5105238;28;20210;-66
2022/01/30 01:05:06;;;;;;;1.37;1.27;;;;;;;7.32;100.00;99034.22;5101804;28;20215;-66
2022/01/30 01:07:34;;;;;;;2.03;1.20;;;;;;;7.32;100.00;99039.47;5101480;28;20671;-66
2022/01/30 01:10:06;;;;;;;1.40;1.30;;;;;;;7.32;100.00;99040.34;5104559;28;20623;-66
2022/01/30 01:23:22;;;;;;;1.30;1.20;;;;;;;7.45;100.00;99056.44;5097865;28;20211;-66
2022/01/30 01:23:49;;;;;;;1.60;1.17;;;;;;;7.43;100.00;99058.28;5104295;28;20243;-66
2022/01/30 01:26:17;;;;;;;1.53;1.20;;;;;;;7.42;100.00;99051.31;5105114;28;20210;-66
2022/01/30 01:28:44;;;;;;;1.27;1.17;;;;;;;7.44;100.00;99054.75;5100988;28;20245;-66
2022/01/30 01:31:12;;;;;;;2.43;1.40;;;;;;;7.47;100.00;99044.09;5101128;28;20214;-66
2022/01/30 01:33:53;;;;;;;3.17;1.57;;;;;;;7.51;100.00;99050.94;5104606;28;20218;-66
2022/01/30 01:36:20;;;;;;;1.50;1.40;;;;;;;7.49;100.00;99042.25;5103156;28;20722;-66
2022/01/30 01:38:46;;;;;;;2.27;1.70;;;;;;;7.47;100.00;99041.47;5097104;28;20209;-66
2022/01/30 01:41:17;;;;;;;1.53;1.33;;;;;;;7.45;100.00;99032.78;5101794;28;20695;-66
2022/01/30 01:43:43;;;;;;;1.80;1.30;;;;;;;7.45;100.00;99031.00;5104251;28;20213;-66
2022/01/30 01:46:15;;;;;;;1.60;1.30;;;;;;;7.47;100.00;99038.84;5103297;28;20237;-66
2022/01/30 01:48:45;;;;;;;2.37;1.33;;;;;;;7.47;100.00;99039.69;5101056;28;20238;-66
2022/01/30 01:51:17;;;;;;;2.50;1.40;;;;;;;7.51;100.00;99045.66;5103099;28;20283;-66
2022/01/30 01:53:44;;;;;;;2.63;1.40;;;;;;;7.48;100.00;99037.91;5104425;28;20210;-66
2022/01/30 01:56:13;;;;;;;1.60;1.50;;;;;;;7.47;100.00;99033.59;5101823;28;20443;-66
2022/01/30 01:58:40;;;;;;;1.43;1.33;;;;;;;7.38;100.00;99030.50;5096789;28;20212;-66
2022/01/30 02:01:07;;;;;;;1.70;1.40;;;;;;;7.26;100.00;99023.13;5099454;28;20226;-66
2022/01/30 02:03:35;;;;;;;2.47;1.30;;;;;;;7.25;100.00;99017.00;5103673;28;20584;-66
2022/01/30 02:06:04;;;;;;;1.30;1.20;;;;;;;7.19;100.00;99019.88;5099923;28;20222;-66
2022/01/30 02:08:35;;;;;;;3.40;1.33;;;;;;;7.15;100.00;99025.34;5096550;28;20239;-66
2022/01/30 02:11:05;;;;;;;1.10;0.93;;;;;;;7.08;100.00;99019.47;5103823;28;20214;-66
2022/01/30 02:24:51;;;;;;;1.07;0.90;;;;;;;6.81;100.00;99022.34;5106821;28;20224;-66
2022/01/30 02:27:21;;;;;;;0.80;0.80;;;;;;;6.84;100.00;99020.47;5107591;28;20217;-66
2022/01/30 02:29:48;;;;;;;0.90;0.90;;;;;;;6.80;100.00;99018.03;5095499;28;20611;-66
2022/01/30 02:32:15;;;;;;;0.70;0.70;;;;;;;6.75;100.00;99005.06;5104092;28;20226;-66
2022/01/30 02:34:42;;;;;;;1.10;1.00;;;;;;;6.88;100.00;99005.41;5107722;28;20229;-66
2022/01/30 02:37:08;;;;;;;1.30;1.20;;;;;;;6.96;100.00;99017.34;5107751;28;20214;-66
2022/01/30 02:39:35;;;;;;;2.97;1.50;;;;;;;6.96;100.00;99016.50;5095952;28;20210;-66
2022/01/30 02:42:03;;;;;;;2.50;1.40;;;;;;;6.99;100.00;99017.22;5103820;28;20293;-66
2022/01/30 02:44:35;;;;;;;1.90;1.80;;;;;;;6.93;100.00;99017.47;5091331;28;20292;-65
2022/01/30 02:47:07;;;;;;;1.83;1.73;;;;;;;6.82;100.00;99019.66;5107414;28;20317;-66
2022/01/30 02:49:57;;;;;;;2.20;1.50;;;;;;;6.73;100.00;99000.78;5103306;28;20703;-66
2022/01/30 02:52:23;;;;;;;2.77;1.63;;;;;;;6.69;100.00;99005.31;5091572;28;20217;-66
2022/01/30 02:54:52;;;;;;;5.17;1.83;;;;;;;6.62;100.00;99014.38;5107100;28;20310;-66
2022/01/30 02:57:20;;;;;;;1.70;1.60;;;;;;;6.54;100.00;99013.78;5099443;28;20226;-66
2022/01/30 02:59:46;;;;;;;1.90;1.70;;;;;;;6.55;100.00;99023.41;5103489;28;20222;-66
2022/01/30 03:02:13;;;;;;;3.00;2.07;;;;;;;6.51;100.00;99026.19;5107386;28;20236;-65
2022/01/30 03:04:40;;;;;;;2.27;1.73;;;;;;;6.43;100.00;99034.38;5106988;28;20212;-65
2022/01/30 03:07:06;;;;;;;3.00;1.97;;;;;;;6.32;100.00;99033.94;5106025;28;20227;-66
2022/01/30 03:09:33;;;;;;;3.67;1.90;;;;;;;6.27;100.00;99033.25;5103197;28;20233;-66
2022/01/30 03:11:59;;;;;;;3.40;2.13;;;;;;;6.19;100.00;99050.19;5105790;28;20592;-66
2022/01/30 03:14:27;;;;;;;2.23;1.30;;;;;;;6.24;100.00;99049.09;5106612;28;20561;-66
2022/01/30 03:16:54;;;;;;;2.37;1.50;;;;;;;6.42;100.00;99045.78;5103342;28;20214;-66
2022/01/30 03:19:20;;;;;;;2.80;1.50;;;;;;;6.55;100.00;99054.94;5103517;28;20264;-65
2022/01/30 03:21:47;;;;;;;2.10;1.37;;;;;;;6.65;100.00;99051.00;5105068;28;20218;-66
2022/01/30 03:24:13;;;;;;;3.40;1.60;;;;;;;6.63;100.00;99054.59;5106335;28;20217;-66
2022/01/30 03:26:41;;;;;;;2.07;1.30;;;;;;;6.69;100.00;99063.13;5103377;28;20213;-66
2022/01/30 03:29:10;;;;;;;1.63;1.37;;;;;;;6.76;100.00;99079.47;5102949;28;20245;-66
2022/01/30 03:31:39;;;;;;;2.97;1.53;;;;;;;6.80;100.00;99081.94;5106000;28;20248;-65
2022/01/30 03:34:10;;;;;;;3.03;1.30;;;;;;;6.77;100.00;99087.31;5106791;28;20218;-66
2022/01/30 03:36:38;;;;;;;1.43;1.27;;;;;;;6.75;100.00;99088.28;5100049;28;20214;-66
2022/01/30 03:39:05;;;;;;;1.57;1.30;;;;;;;6.76;100.00;99089.97;5102943;28;20214;-66
2022/01/30 03:41:32;;;;;;;1.67;1.33;;;;;;;6.76;100.00;99085.59;5090404;28;20220;-66
2022/01/30 03:43:59;;;;;;;2.07;1.40;;;;;;;6.79;100.00;99079.38;5106600;28;20264;-66
2022/01/30 03:46:26;;;;;;;1.43;1.33;;;;;;;6.77;100.00;99082.03;5102908;28;20218;-66
2022/01/30 03:48:54;;;;;;;1.40;1.30;;;;;;;6.76;100.00;99087.34;5101212;28;20597;-65
2022/01/30 03:51:20;;;;;;;2.43;1.27;;;;;;;6.76;100.00;99089.97;5106091;28;20216;-65
2022/01/30 03:53:47;;;;;;;2.47;1.30;;;;;;;6.71;100.00;99084.91;5106361;28;20210;-65
2022/01/30 03:56:13;;;;;;;3.87;1.67;;;;;;;6.74;100.00;99087.44;5102849;28;20224;-65
2022/01/30 03:58:40;;;;;;;2.60;1.43;;;;;;;6.74;100.00;99092.69;5102542;28;20222;-65
2022/01/30 04:01:06;;;;;;;2.30;1.50;;;;;;;6.78;100.00;99099.53;5105535;28;20217;-65
2022/01/30 04:03:33;;;;;;;2.77;1.50;;;;;;;6.84;100.00;99098.44;5105944;28;20685;-65
2022/01/30 04:06:01;;;;;;;3.33;1.67;;;;;;;6.89;100.00;99101.75;5103142;28;20327;-65
2022/01/30 04:08:28;;;;;;;2.47;1.70;;;;;;;6.89;100.00;99105.22;5097142;28;20243;-65
2022/01/30 04:10:55;;;;;;;3.10;1.73;;;;;;;6.92;100.00;99105.13;5104132;28;20217;-65
2022/01/30 04:13:21;;;;;;;1.90;1.67;;;;;;;6.90;100.00;99119.22;5110553;28;20237;-65
2022/01/30 04:15:48;;;;;;;2.90;1.93;;;;;;;6.89;100.00;99105.22;5101217;28;20247;-66
2022/01/30 04:18:15;;;;;;;3.77;1.87;;;;;;;6.86;100.00;99107.97;5102015;28;20222;-66
2022/01/30 04:20:42;;;;;;;2.00;1.70;;;;;;;6.85;100.00;99116.75;5104611;28;20589;-66
2022/01/30 04:23:10;;;;;;;2.77;1.87;;;;;;;6.92;100.00;99117.38;5105436;28;20224;-66
2022/01/30 04:25:37;;;;;;;2.13;1.80;;;;;;;6.87;100.00;99108.81;5102823;28;20213;-66
2022/01/30 04:28:04;;;;;;;3.47;2.97;;;;;;;6.83;100.00;99121.22;5096320;28;20224;-66
2022/01/30 04:30:30;;;;;;;5.70;2.30;;;;;;;6.82;100.00;99114.25;5103994;28;20225;-66
2022/01/30 04:32:57;;;;;;;4.40;2.10;;;;;;;6.75;100.00;99115.41;5105477;28;20214;-66
2022/01/30 04:35:27;;;;;;;3.63;2.17;;;;;;;6.79;100.00;99117.00;5103076;28;20214;-66
2022/01/30 04:38:03;;;;;;;5.03;1.93;;;;;;;6.72;100.00;99123.41;5096269;28;20218;-66
2022/01/30 04:55:03;;;;;;;4.20;2.70;;;;;;;6.43;100.00;99115.78;5089986;28;20254;-66
2022/01/30 04:57:38;;;;;;;4.23;2.40;;;;;;;6.30;100.00;99114.50;5099381;28;20702;-66
2022/01/30 05:00:21;;;;;;;4.47;3.10;;;;;;;6.25;100.00;99111.22;5104299;28;20278;-66
2022/01/30 05:02:55;;;;;;;6.80;2.83;;;;;;;6.11;100.00;99108.19;5103775;28;20252;-66
2022/01/30 05:05:43;;;;;;;4.87;2.57;;;;;;;6.07;100.00;99114.50;5101246;28;20252;-66
2022/01/30 05:08:11;;;;;;;6.23;2.90;;;;;;;6.02;100.00;99116.44;5087077;28;20217;-66
2022/01/30 05:10:38;;;;;;;6.43;2.97;;;;;;;5.99;100.00;99119.13;5104406;28;20216;-66
2022/01/30 05:13:10;;;;;;;6.87;2.80;;;;;;;5.99;100.00;99113.88;5101258;28;20225;-66
2022/01/30 05:15:37;;;;;;;7.47;2.80;;;;;;;5.93;100.00;99121.97;5102389;28;20252;-66
2022/01/30 05:18:04;;;;;;;5.70;3.00;;;;;;;5.84;100.00;99117.06;5104996;28;20217;-66
2022/01/30 05:20:32;;;;;;;5.97;3.10;;;;;;;5.71;100.00;99128.00;5104775;28;20216;-66
2022/01/30 05:22:59;;;;;;;5.30;2.60;;;;;;;5.54;100.00;99127.69;5100716;28;20615;-66
2022/01/30 05:25:27;;;;;;;8.80;3.13;;;;;;;5.41;100.00;99132.50;5099818;28;20215;-66
2022/01/30 05:27:54;;;;;;;8.63;2.97;;;;;;;5.31;100.00;99127.63;5104755;28;20216;-66
2022/01/30 05:30:22;;;;;;;6.03;3.60;;;;;;;5.24;100.00;99145.28;5103723;28;20237;-66
2022/01/30 05:32:49;;;;;;;6.30;3.57;;;;;;;5.17;100.00;99151.66;5099130;28;20701;-66
2022/01/30 05:35:16;;;;;;;5.73;3.30;;;;;;;5.19;100.00;99152.44;5102678;28;20224;-66
2022/01/30 05:37:43;;;;;;;6.97;3.60;;;;;;;5.23;100.00;99153.19;5109232;28;20218;-66
2022/01/30 05:40:11;;;;;;;6.57;3.93;;;;;;;5.13;100.00;99152.63;5108217;28;20233;-66
2022/01/30 05:42:38;;;;;;;6.90;3.83;;;;;;;5.23;100.00;99161.06;5104866;28;20217;-66
2022/01/30 05:45:16;;;;;;;6.73;3.70;;;;;;;5.29;100.00;99163.50;5105784;28;20208;-66
2022/01/30 05:47:50;;;;;;;5.83;3.50;;;;;;;5.38;100.00;99171.91;5108411;28;20214;-66
2022/01/30 05:50:17;;;;;;;7.93;3.60;;;;;;;5.32;100.00;99171.28;5105295;28;20246;-66
2022/01/30 05:52:43;;;;;;;8.10;3.87;;;;;;;5.28;100.00;99175.75;5104980;28;20209;-67
2022/01/30 05:55:10;;;;;;;7.87;4.20;;;;;;;5.30;100.00;99184.41;5107821;28;20215;-67
2022/01/30 05:57:36;;;;;;;9.53;3.60;;;;;;;5.31;100.00;99188.75;5108173;28;20226;-66
2022/01/30 06:00:05;;;;;;;10.30;4.00;;;;;;;5.30;100.00;99187.03;5104610;28;20223;-66
2022/01/30 06:02:32;;;;;;;11.77;3.80;;;;;;;5.42;100.00;99191.88;5104721;28;20212;-66
2022/01/30 06:05:00;;;;;;;6.40;3.90;;;;;;;5.56;100.00;99201.94;5107483;28;20211;-66
2022/01/30 06:07:30;;;;;;;8.27;3.57;;;;;;;5.65;100.00;99199.88;5108083;28;20216;-66
2022/01/30 06:09:56;;;;;;;8.47;3.73;;;;;;;5.75;100.00;99208.31;5104613;28;20299;-66
2022/01/30 06:12:23;;;;;;;9.80;3.40;;;;;;;5.79;100.00;99202.91;5107996;28;20211;-66
2022/01/30 06:14:49;;;;;;;8.17;4.07;;;;;;;5.83;100.00;99215.03;5108203;28;20240;-66
2022/01/30 06:17:16;;;;;;;9.30;3.63;;;;;;;5.90;100.00;99221.81;5108027;28;20567;-66
2022/01/30 06:19:42;;;;;;;8.17;3.53;;;;;;;5.84;100.00;99221.13;5105323;28;20212;-66
2022/01/30 06:22:10;;;;;;;8.50;3.40;;;;;;;5.84;100.00;99231.63;5099112;28;20214;-66
2022/01/30 06:24:37;;;;;;;9.13;3.53;;;;;;;5.80;100.00;99235.28;5105293;28;20213;-66
2022/01/30 06:27:04;;;;;;;7.23;3.43;;;;;;;5.73;100.00;99239.81;5107956;28;20212;-66
2022/01/30 06:29:30;;;;;;;6.80;3.00;;;;;;;5.65;100.00;99240.97;5105378;28;20243;-66
2022/01/30 06:31:57;;;;;;;6.37;3.00;;;;;;;5.55;100.00;99237.78;5103968;28;20214;-66
2022/01/30 06:34:23;;;;;;;6.03;3.63;;;;;;;5.46;100.00;99240.72;5105870;28;20335;-66
2022/01/30 06:36:50;;;;;;;8.20;3.53;;;;;;;5.46;100.00;99250.31;5107915;28;20604;-66
2022/01/30 06:39:17;;;;;;;5.40;3.17;;;;;;;5.51;100.00;99238.78;5103108;28;20286;-66
2022/01/30 06:41:44;;;;;;;4.93;3.00;;;;;;;5.54;100.00;99249.19;5103611;28;20694;-66
2022/01/30 06:44:10;;;;;;;8.10;3.20;;;;;;;5.55;100.00;99256.13;5105389;28;20688;-67
2022/01/30 06:46:37;;;;;;;7.90;3.80;;;;;;;5.58;100.00;99258.69;5107456;28;20225;-66
2022/01/30 06:49:03;;;;;;;8.77;2.90;;;;;;;5.56;100.00;99263.09;5105645;28;20740;-67
2022/01/30 06:51:30;;;;;;;5.43;2.97;;;;;;;5.61;100.00;99258.56;5102135;28;20210;-66
2022/01/30 06:53:56;;;;;;;7.27;3.10;;;;;;;5.62;100.00;99247.16;5104904;28;20212;-66
2022/01/30 06:56:24;;;;;;;9.77;3.47;;;;;;;5.59;100.00;99255.16;5107254;28;20672;-66
2022/01/30 06:58:53;;;;;;;7.13;3.00;;;;;;;5.57;100.00;99249.06;5105897;28;20695;-66
2022/01/30 07:01:19;;;;;;;5.27;2.70;;;;;;;5.58;100.00;99266.56;5103494;28;20217;-66
2022/01/30 07:03:46;;;;;;;6.97;3.10;;;;;;;5.60;100.00;99269.97;5104832;28;20211;-66
2022/01/30 07:06:12;;;;;;;6.20;2.80;;;;;;;5.57;100.00;99275.28;5107341;28;20210;-66
2022/01/30 07:08:38;;;;;;;5.70;2.70;;;;;;;5.46;100.00;99272.16;5106247;28;20209;-66
2022/01/30 07:11:05;;;;;;;7.20;2.60;;;;;;;5.45;100.00;99280.06;5103598;28;20220;-66
2022/01/30 07:13:33;;;;;;;7.30;3.00;;;;;;;5.36;100.00;99289.06;5103879;28;20204;-66
2022/01/30 07:15:59;;;;;;;9.43;2.93;;;;;;;5.36;100.00;99288.22;5104998;28;20255;-66
2022/01/30 07:18:26;;;;;;;6.73;2.80;;;;;;;5.39;100.00;99289.00;5106168;28;20220;-66
2022/01/30 07:20:52;;;;;;;7.63;3.60;;;;;;;5.40;100.00;99295.97;5102844;28;20213;-67
2022/01/30 07:23:19;;;;;;;8.80;2.43;;;;;;;5.52;100.00;99303.44;5103018;28;20212;-66
2022/01/30 07:25:45;;;;;;;5.70;2.67;;;;;;;5.50;100.00;99305.25;5106529;28;20662;-66
2022/01/30 07:28:12;;;;;;;6.13;2.77;;;;;;;5.53;100.00;99315.66;5106836;28;20213;-66
2022/01/30 07:30:39;;;;;;;5.47;3.03;;;;;;;5.56;100.00;99315.53;5099955;28;20249;-67
2022/01/30 07:33:06;;;;;;;7.27;3.20;;;;;;;5.52;100.00;99324.44;5103020;28;20218;-67
2022/01/30 07:35:36;;;;;;;6.67;3.00;;;;;;;5.53;100.00;99323.53;5090323;28;20213;-66
2022/01/30 07:38:03;;;;;;;6.03;2.77;;;;;;;5.52;100.00;99329.69;5106270;28;20595;-66
2022/01/30 07:40:32;;;;;;;7.03;2.70;;;;;;;5.47;100.00;99328.06;5099997;28;20304;-67
2022/01/30 07:42:58;;;;;;;6.77;3.50;;;;;;;5.36;100.00;99331.03;5101019;28;20213;-66
2022/01/30 07:45:25;;;;;;;6.03;3.00;;;;;;;5.38;100.00;99334.44;5106543;28;20216;-66
2022/01/30 07:47:53;;;;;;;12.70;3.50;;;;;;;5.42;100.00;99338.69;5106235;28;20216;-66
2022/01/30 07:50:20;;;;;;;5.93;3.10;;;;;;;5.35;100.00;99345.03;5094287;28;20240;-66
2022/01/30 07:52:46;;;;;;;8.13;3.93;;;;;;;5.20;100.00;99342.00;5101747;28;20674;-66
2022/01/30 07:55:13;;;;;;;7.67;3.70;;;;;;;5.24;100.00;99343.59;5089893;28;20216;-66
2022/01/30 07:57:41;;;;;;;10.07;3.90;;;;;;;5.30;100.00;99352.16;5106158;28;20223;-66
2022/01/30 08:00:09;;;;;;;7.67;3.90;;;;;;;5.33;100.00;99344.22;5101967;28;20268;-66
2022/01/30 08:02:35;;;;;;;9.80;3.97;;;;;;;5.30;100.00;99349.56;5102074;28;20219;-66
2022/01/30 08:05:03;;;;;;;11.57;4.23;;;;;;;5.25;100.00;99340.13;5105685;28;20217;-66
2022/01/30 08:07:31;;;;;;;9.50;3.77;;;;;;;5.21;100.00;99348.97;5105847;28;20569;-66
2022/01/30 08:09:57;;;;;;;9.67;4.00;;;;;;;5.03;100.00;99355.59;5100400;28;20237;-66
2022/01/30 08:12:24;;;;;;;9.63;3.80;;;;;;;4.93;100.00;99354.13;5105587;28;20217;-67
2022/01/30 08:14:51;;;;;;;11.67;4.60;;;;;;;4.85;100.00;99353.47;5105548;28;20235;-67
2022/01/30 08:17:22;;;;;;;11.13;3.93;;;;;;;4.82;100.00;99356.16;5105697;28;20216;-66
2022/01/30 08:19:48;;;;;;;7.87;3.90;;;;;;;4.83;100.00;99346.56;5099041;28;20226;-66
2022/01/30 08:22:16;;;;;;;9.40;4.10;;;;;;;4.81;100.00;99338.72;5102136;28;20294;-66
2022/01/30 08:24:43;;;;;;;12.47;3.90;;;;;;;4.85;100.00;99345.63;5105816;28;20672;-66
2022/01/30 08:27:09;;;;;;;8.67;3.63;;;;;;;4.91;100.00;99340.22;5100948;28;20575;-66
2022/01/30 08:29:37;;;;;;;9.70;3.23;;;;;;;4.95;100.00;99341.81;5099130;28;20236;-66
2022/01/30 08:32:04;;;;;;;9.00;3.50;;;;;;;5.03;100.00;99326.75;5099123;28;20230;-66
2022/01/30 08:34:31;;;;;;;5.37;3.40;;;;;;;4.98;100.00;99339.13;5100935;28;20226;-66
2022/01/30 08:36:57;;;;;;;11.63;3.20;;;;;;;5.04;100.00;99330.22;5101619;28;20220;-66
2022/01/30 08:39:25;;;;;;;8.00;3.30;;;;;;;5.09;100.00;99329.22;5099078;28;20220;-66
2022/01/30 08:41:51;;;;;;;8.50;3.33;;;;;;;5.09;100.00;99323.09;5098830;28;20220;-66
2022/01/30 08:44:18;;;;;;;8.67;3.03;;;;;;;5.15;100.00;99326.41;5101343;28;20220;-66
2022/01/30 08:46:44;;;;;;;9.17;3.00;;;;;;;5.11;100.00;99319.53;5099215;28;20225;-65
2022/01/30 08:49:11;;;;;;;10.70;2.83;;;;;;;5.13;100.00;99317.72;5097845;28;20585;-66
2022/01/30 08:51:38;;;;;;;6.50;3.17;;;;;;;5.08;100.00;99316.16;5097991;28;20648;-66
2022/01/30 08:54:04;;;;;;;10.53;2.87;;;;;;;5.11;100.00;99311.69;5098853;28;20266;-66
2022/01/30 08:56:32;;;;;;;9.20;3.00;;;;;;;5.17;99.54;99316.75;5081434;28;20575;-66
2022/01/30 08:58:59;;;;;;;8.30;3.30;;;;;;;5.13;96.81;99320.34;5101329;28;20222;-66
2022/01/30 09:01:30;;;;;;;8.60;2.73;;;;;;;5.21;96.11;99315.75;5101041;28;20211;-66
2022/01/30 09:03:59;;;;;;;8.27;2.77;;;;;;;5.22;96.64;99314.84;5098527;28;20217;-66
2022/01/30 09:06:26;;;;;;;10.83;2.77;;;;;;;5.25;94.92;99309.50;5097025;28;20219;-66
2022/01/30 09:08:52;;;;;;;8.80;2.27;;;;;;;5.27;93.01;99307.72;5102590;28;20207;-66
2022/01/30 09:11:19;;;;;;;9.80;2.60;;;;;;;5.29;94.03;99312.88;5101067;28;20624;-65
2022/01/30 09:13:47;;;;;;;8.73;2.73;;;;;;;5.27;95.95;99314.72;5111075;28;20220;-66
2022/01/30 09:16:13;;;;;;;8.57;2.67;;;;;;;5.29;93.75;99316.38;5098683;28;20246;-66
2022/01/30 09:18:40;;;;;;;5.20;2.40;;;;;;;5.23;95.57;99321.81;5098389;28;20217;-67
2022/01/30 09:21:07;;;;;;;8.90;2.50;;;;;;;5.29;93.10;99326.00;5096969;28;20695;-66
2022/01/30 09:23:34;;;;;;;6.70;2.30;;;;;;;5.43;94.10;99321.22;5085922;28;20264;-65
2022/01/30 09:26:00;;;;;;;7.23;2.50;;;;;;;5.36;93.80;99328.41;5110206;28;20216;-66
2022/01/30 09:28:27;;;;;;;9.60;2.63;;;;;;;5.39;92.62;99333.56;5107365;28;20221;-68
2022/01/30 09:30:55;;;;;;;11.23;2.90;;;;;;;5.50;93.91;99341.94;5106665;28;20234;-66
2022/01/30 09:33:21;;;;;;;8.77;3.00;;;;;;;5.66;94.02;99335.34;5108597;28;20220;-66
2022/01/30 09:35:48;;;;;;;7.67;3.13;;;;;;;5.71;93.13;99336.06;5109079;28;20523;-66
2022/01/30 09:38:14;;;;;;;8.60;2.80;;;;;;;5.66;94.47;99334.47;5109918;28;20220;-67
2022/01/30 09:40:41;;;;;;;8.77;3.73;;;;;;;5.61;95.84;99336.41;5106894;28;20214;-68
2022/01/30 09:43:09;;;;;;;8.93;3.10;;;;;;;5.74;94.54;99330.72;5108767;28;20224;-68
2022/01/30 09:45:36;;;;;;;7.67;3.03;;;;;;;6.01;93.68;99334.28;5110815;28;20236;-67
2022/01/30 09:48:05;;;;;;;6.23;2.80;;;;;;;6.17;91.14;99338.97;5110475;28;20224;-68
2022/01/30 09:50:31;;;;;;;7.50;2.60;;;;;;;6.17;91.23;99341.59;5100553;28;20241;-68
2022/01/30 09:52:58;;;;;;;11.10;3.00;;;;;;;6.15;90.72;99343.41;5106605;28;20213;-68
2022/01/30 09:55:24;;;;;;;8.50;3.10;;;;;;;6.09;91.06;99346.25;5110716;28;20211;-68
2022/01/30 09:57:53;;;;;;;10.87;3.43;;;;;;;6.06;92.00;99356.84;5106187;28;20216;-68
2022/01/30 10:00:19;;;;;;;7.03;3.00;;;;;;;6.05;91.10;99355.13;5099037;28;20221;-68
2022/01/30 10:02:46;;;;;;;8.03;2.97;;;;;;;6.02;91.68;99352.59;5101453;28;20222;-68
2022/01/30 10:05:15;;;;;;;9.20;3.00;;;;;;;6.09;91.21;99354.13;5106184;28;20212;-68
2022/01/30 10:07:45;;;;;;;7.93;3.30;;;;;;;6.18;90.79;99355.59;5106718;28;20262;-68
2022/01/30 10:10:13;;;;;;;10.37;3.30;;;;;;;6.32;90.90;99356.00;5092786;28;20729;-68
2022/01/30 10:13:02;;;;;;;12.03;4.13;;;;;;;6.49;89.16;99379.94;5110120;28;20213;-69
2022/01/30 10:15:29;;;;;;;10.50;3.67;;;;;;;6.38;90.06;99377.66;5106512;28;20712;-68
2022/01/30 10:17:55;;;;;;;10.30;3.40;;;;;;;6.35;88.21;99377.75;5107109;28;20217;-68
2022/01/30 10:20:25;;;;;;;12.77;3.70;;;;;;;6.20;87.48;99372.13;5105629;28;20226;-68
2022/01/30 10:22:54;;;;;;;6.83;2.87;;;;;;;6.15;89.97;99390.66;5109683;28;20218;-68
2022/01/30 10:25:23;;;;;;;13.93;3.33;;;;;;;6.25;90.91;99391.22;5110104;28;20217;-68
2022/01/30 10:28:04;;;;;;;10.30;3.40;;;;;;;6.26;90.42;99399.06;5106383;28;20225;-68
2022/01/30 10:30:39;;;;;;;9.73;3.27;;;;;;;6.14;90.36;99404.72;5109162;28;20241;-68
2022/01/30 10:33:08;;;;;;;8.47;2.77;;;;;;;5.95;89.00;99397.44;5109922;28;20223;-69
2022/01/30 10:35:48;;;;;;;8.30;3.10;;;;;;;5.86;88.53;99403.81;5106841;28;20220;-69
2022/01/30 10:38:23;;;;;;;5.20;2.80;;;;;;;6.06;84.01;99401.47;5106642;28;20241;-68
2022/01/30 10:40:54;;;;;;;7.27;2.63;;;;;;;6.37;84.84;99410.09;5109853;28;20217;-69
2022/01/30 10:43:21;;;;;;;7.60;2.60;;;;;;;6.38;81.09;99393.41;5107854;28;20252;-68
2022/01/30 10:45:48;;;;;;;5.73;2.40;;;;;;;6.35;78.87;99404.00;5104180;28;20213;-68
2022/01/30 10:48:17;;;;;;;6.80;2.80;;;;;;;6.43;76.62;99402.00;5109092;28;20219;-68
2022/01/30 10:50:47;;;;;;;9.67;2.47;;;;;;;6.53;76.35;99399.94;5103913;28;20779;-68
2022/01/30 10:53:21;;;;;;;8.63;2.47;;;;;;;6.57;74.63;99399.78;5105845;28;20223;-69
2022/01/30 10:55:48;;;;;;;7.30;2.53;;;;;;;6.55;73.97;99399.00;5101982;28;20223;-69
2022/01/30 10:58:17;;;;;;;7.97;2.50;;;;;;;6.55;74.13;99396.34;5107754;28;20244;-68
2022/01/30 11:00:49;;;;;;;5.70;2.50;;;;;;;6.57;74.39;99404.16;5107669;28;20217;-68
2022/01/30 11:03:41;;;;;;;6.07;2.10;;;;;;;6.64;74.70;99396.03;5106854;28;20215;-69
2022/01/30 11:06:11;;;;;;;7.87;2.77;;;;;;;6.72;74.99;99387.91;5090064;28;20232;-69
2022/01/30 11:08:42;;;;;;;8.23;2.23;;;;;;;6.65;74.29;99386.41;5107879;28;20557;-69
2022/01/30 11:11:19;;;;;;;6.13;2.20;;;;;;;6.72;77.07;99387.91;5101041;28;20675;-68
2022/01/30 11:14:00;;;;;;;7.07;2.00;;;;;;;6.97;71.75;99384.34;5106918;28;20623;-68
2022/01/30 11:19:12;;;;;;;6.40;2.30;;;;;;;7.11;71.34;99387.38;5096305;28;20220;-68
2022/01/30 11:21:40;;;;;;;4.67;2.23;;;;;;;7.28;73.08;99385.84;5107041;28;20236;-68
2022/01/30 11:24:09;;;;;;;7.37;2.37;;;;;;;7.48;71.15;99387.75;5107468;28;20237;-68
2022/01/30 11:26:36;;;;;;;5.93;2.03;;;;;;;7.69;71.78;99381.69;5105468;28;20213;-69
2022/01/30 11:29:03;;;;;;;7.53;2.77;;;;;;;7.68;69.83;99385.22;5103542;28;20222;-68
2022/01/30 11:31:31;;;;;;;7.30;2.80;;;;;;;7.73;69.99;99383.28;5106713;28;20226;-69
2022/01/30 11:33:59;;;;;;;7.67;3.03;;;;;;;7.44;68.30;99391.41;5106476;28;20241;-69
2022/01/30 11:36:26;;;;;;;8.60;2.67;;;;;;;7.17;69.11;99381.91;5105475;28;20209;-69
2022/01/30 11:38:53;;;;;;;7.73;2.43;;;;;;;7.10;69.97;99380.41;5101570;28;20217;-68
2022/01/30 11:41:21;;;;;;;9.57;2.80;;;;;;;7.03;69.53;99372.78;5106670;28;20218;-68
2022/01/30 11:44:29;;;;;;;10.07;2.63;;;;;;;7.00;71.43;99367.63;5107290;28;20213;-69
2022/01/30 11:47:19;;;;;;;8.40;3.23;;;;;;;6.86;72.16;99365.50;5101314;28;20217;-69
2022/01/30 11:49:49;;;;;;;10.40;3.30;;;;;;;6.76;73.79;99353.59;5107058;28;20258;-69
2022/01/30 11:52:16;;;;;;;9.00;2.67;;;;;;;6.62;76.87;99339.19;5094350;28;20605;-69
2022/01/30 11:54:45;;;;;;;11.23;2.87;;;;;;;6.42;78.78;99337.25;5103576;28;20217;-69
2022/01/30 11:57:46;;;;;;;12.73;3.63;;;;;;;6.30;79.48;99327.16;5106685;28;20813;-69
2022/01/30 12:00:36;;;;;;;10.47;2.97;;;;;;;6.36;78.99;99326.94;5103718;28;20618;-69
2022/01/30 12:03:21;;;;;;;7.93;3.10;;;;;;;6.46;78.60;99323.13;5087380;28;20224;-68
2022/01/30 12:05:48;;;;;;;8.33;2.67;;;;;;;6.61;78.03;99316.47;5104628;28;20218;-68
2022/01/30 12:08:42;;;;;;;8.43;2.87;;;;;;;6.79;74.68;99311.41;5102990;28;20239;-69
2022/01/30 12:11:43;;;;;;;9.93;3.60;;;;;;;6.89;76.65;99312.81;5090957;28;20241;-68
2022/01/30 12:14:32;;;;;;;9.27;2.57;;;;;;;7.12;76.20;99320.75;5103708;28;20710;-69
2022/01/30 12:17:02;;;;;;;8.43;2.87;;;;;;;6.90;74.16;99314.53;5089287;28;20217;-69
2022/01/30 12:20:05;;;;;;;12.43;2.97;;;;;;;6.68;75.11;99313.59;5106540;28;20671;-68